Time;durP1;ratioP1;P1;durP2;ratioP2;P2;SDS_P1;SDS_P2;PMS_P1;PMS_P2;Temp;Humidity;BMP_temperature;BMP_pressure;BME280_temperature;BME280_humidity;BME280_pressure;Samples;Min_cycle;Max_cycle;Signal;HPM_P1;HPM_P2
2023/10/11 00:01:34;;;;;;;12.80;6.25;;;;;;;13.65;nan;101178.16;10357179;28;20149;-81
2023/10/11 00:06:35;;;;;;;13.15;7.43;;;;;;;13.53;nan;101193.44;10355118;28;20384;-81
2023/10/11 00:11:38;;;;;;;11.75;6.85;;;;;;;13.46;nan;101194.94;10370711;28;20125;-81
2023/10/11 00:16:40;;;;;;;12.18;6.35;;;;;;;13.73;nan;101184.63;10373405;28;20651;-81
2023/10/11 00:21:41;;;;;;;11.93;5.97;;;;;;;13.78;nan;101179.56;10356580;28;20049;-82
2023/10/11 00:26:44;;;;;;;20.80;9.95;;;;;;;13.66;nan;101172.06;10357298;28;20065;-82
2023/10/11 00:31:45;;;;;;;14.77;7.22;;;;;;;13.70;nan;101178.34;10304572;28;20038;-81
2023/10/11 00:36:49;;;;;;;11.73;6.67;;;;;;;13.68;nan;101177.41;10330049;28;20537;-82
2023/10/11 00:41:50;;;;;;;13.98;6.63;;;;;;;13.58;nan;101174.41;10349237;28;20477;-81
2023/10/11 00:46:57;;;;;;;18.58;7.30;;;;;;;13.53;nan;101175.03;10378646;28;20132;-81
2023/10/11 00:51:57;;;;;;;11.52;7.05;;;;;;;13.55;nan;101178.63;10291833;28;20038;-82
2023/10/11 00:56:58;;;;;;;12.73;6.55;;;;;;;13.67;nan;101168.59;10329405;28;20145;-81
2023/10/11 01:01:58;;;;;;;23.60;9.20;;;;;;;13.84;nan;101166.63;10343802;28;20062;-82
2023/10/11 01:06:59;;;;;;;12.02;7.75;;;;;;;14.00;nan;101156.72;10345636;28;20058;-82
2023/10/11 01:12:00;;;;;;;13.45;5.97;;;;;;;14.04;nan;101154.22;10377228;28;20172;-81
2023/10/11 01:17:00;;;;;;;12.65;5.30;;;;;;;13.80;nan;101138.41;10362344;28;20121;-82
2023/10/11 01:22:01;;;;;;;15.40;8.50;;;;;;;13.59;nan;101148.97;10345971;28;20124;-81
2023/10/11 01:27:03;;;;;;;11.98;5.53;;;;;;;13.67;nan;101152.81;10346758;28;20137;-81
2023/10/11 01:32:03;;;;;;;;;;;;;;;13.58;nan;101136.66;10340199;28;20134;-82
2023/10/11 01:37:06;;;;;;;13.90;6.15;;;;;;;13.43;nan;101144.84;10324770;28;19929;-82
2023/10/11 01:42:07;;;;;;;20.65;5.70;;;;;;;13.15;nan;101136.69;10345667;28;20046;-81
2023/10/11 01:47:08;;;;;;;10.77;7.38;;;;;;;13.26;nan;101128.34;10361903;28;20121;-81
2023/10/11 01:52:12;;;;;;;16.03;6.90;;;;;;;13.26;nan;101129.25;10330286;28;20767;-81
2023/10/11 01:57:12;;;;;;;10.48;5.68;;;;;;;13.15;nan;101127.91;10325942;28;20042;-82
2023/10/11 02:02:13;;;;;;;25.88;6.88;;;;;;;12.93;nan;101130.53;10322422;28;20119;-81
2023/10/11 02:07:14;;;;;;;13.82;5.90;;;;;;;13.00;nan;101126.44;10319625;28;20177;-81
2023/10/11 02:12:17;;;;;;;14.52;8.27;;;;;;;13.09;nan;101115.41;10297410;28;20344;-81
2023/10/11 02:17:23;;;;;;;16.55;9.07;;;;;;;13.08;nan;101108.34;10319885;28;20092;-81
2023/10/11 02:22:24;;;;;;;18.73;6.88;;;;;;;13.06;nan;101110.94;10335478;28;20092;-81
2023/10/11 02:27:25;;;;;;;11.45;6.88;;;;;;;12.92;nan;101107.72;10374392;28;20060;-82
2023/10/11 02:32:32;;;;;;;14.80;7.50;;;;;;;12.97;nan;101097.41;10366676;28;20088;-81
2023/10/11 02:37:36;;;;;;;16.58;6.32;;;;;;;12.81;nan;101100.25;10360434;28;20046;-80
2023/10/11 02:42:36;;;;;;;12.57;5.78;;;;;;;12.97;nan;101100.06;10360947;28;20081;-80
2023/10/11 02:47:37;;;;;;;13.13;5.93;;;;;;;13.00;nan;101100.19;10357836;28;20145;-81
2023/10/11 02:52:39;;;;;;;11.48;5.60;;;;;;;12.97;nan;101096.50;10343112;28;20072;-81
2023/10/11 02:57:40;;;;;;;;;;;;;;;12.90;nan;101091.00;10348625;28;20411;-81
2023/10/11 03:02:42;;;;;;;19.58;8.70;;;;;;;12.84;nan;101105.63;10318228;28;19928;-81
2023/10/11 03:07:44;;;;;;;13.45;7.15;;;;;;;12.66;nan;101097.84;10333031;28;20041;-81
2023/10/11 03:12:50;;;;;;;10.55;6.38;;;;;;;12.84;nan;101089.88;10373118;28;20061;-80
2023/10/11 03:17:52;;;;;;;12.05;6.55;;;;;;;12.83;nan;101086.31;10345360;28;20402;-81
2023/10/11 03:22:53;;;;;;;12.50;8.27;;;;;;;12.66;nan;101089.97;10326753;28;20049;-81
2023/10/11 03:27:53;;;;;;;17.10;6.85;;;;;;;12.62;nan;101088.94;10354582;28;20446;-81
2023/10/11 03:32:55;;;;;;;11.90;7.22;;;;;;;12.57;nan;101086.13;10350538;28;20047;-81
2023/10/11 03:37:59;;;;;;;14.15;6.68;;;;;;;12.63;nan;101077.63;10358948;28;20132;-80
2023/10/11 03:43:03;;;;;;;17.50;7.85;;;;;;;12.67;nan;101062.88;10356694;28;20042;-80
2023/10/11 03:48:09;;;;;;;17.48;7.85;;;;;;;12.47;nan;101063.84;10350500;28;20081;-80
2023/10/11 03:53:13;;;;;;;12.77;7.50;;;;;;;12.44;nan;101062.78;10349466;28;20042;-79
2023/10/11 03:58:33;;;;;;;12.05;6.43;;;;;;;12.54;nan;101083.34;10348097;28;20049;-84
2023/10/11 04:03:39;;;;;;;18.23;6.32;;;;;;;12.35;nan;101092.19;10333962;28;20386;-81
2023/10/11 04:08:50;;;;;;;10.05;5.95;;;;;;;12.30;nan;101086.72;10311049;28;20061;-82
2023/10/11 04:13:51;;;;;;;14.82;7.30;;;;;;;12.18;nan;101081.81;10300710;28;20120;-79
2023/10/11 04:18:54;;;;;;;13.43;6.65;;;;;;;12.11;nan;101071.88;10333683;28;20091;-80
2023/10/11 04:23:57;;;;;;;13.50;6.60;;;;;;;12.03;nan;101100.38;10357861;28;20050;-81
2023/10/11 04:29:06;;;;;;;18.20;8.10;;;;;;;12.07;nan;101079.53;10338498;28;20504;-79
2023/10/11 04:34:11;;;;;;;17.90;8.05;;;;;;;11.96;nan;101087.78;10354040;28;20096;-82
2023/10/11 04:39:27;;;;;;;12.23;7.07;;;;;;;11.82;nan;101095.03;10352981;28;20038;-81
2023/10/11 04:44:35;;;;;;;12.65;7.88;;;;;;;11.63;nan;101109.00;10371936;28;20034;-79
2023/10/11 04:49:36;;;;;;;14.18;9.00;;;;;;;11.59;nan;101100.09;10340809;28;20037;-81
2023/10/11 04:54:41;;;;;;;14.43;6.53;;;;;;;11.56;nan;101099.97;10368425;28;20521;-78
2023/10/11 04:59:42;;;;;;;14.98;8.45;;;;;;;11.48;nan;101097.78;10350321;28;20042;-79
2023/10/11 05:04:44;;;;;;;15.48;8.80;;;;;;;11.46;nan;101106.47;10355451;28;20038;-80
2023/10/11 05:09:52;;;;;;;13.80;7.28;;;;;;;11.64;nan;101110.78;10361828;28;20037;-80
2023/10/11 05:30:28;;;;;;;11.63;6.20;;;;;;;11.92;nan;101069.22;10361568;28;20091;-82
2023/10/11 05:51:48;;;;;;;9.95;5.85;;;;;;;11.87;nan;101063.75;10312217;28;20390;-81
2023/10/11 05:56:49;;;;;;;15.02;7.70;;;;;;;11.78;nan;101080.00;10322581;28;20069;-82
2023/10/11 06:01:52;;;;;;;12.80;6.05;;;;;;;11.88;nan;101083.91;10318686;28;20467;-82
2023/10/11 06:06:57;;;;;;;14.35;7.32;;;;;;;11.94;nan;101070.19;10341773;28;20092;-81
2023/10/11 06:12:00;;;;;;;13.82;6.63;;;;;;;12.12;nan;101092.06;10344966;28;20041;-82
2023/10/11 06:17:05;;;;;;;;;;;;;;;12.20;nan;101076.63;10368400;28;20038;-80
2023/10/11 06:22:11;;;;;;;11.82;7.20;;;;;;;12.18;nan;101086.16;10390895;28;19921;-82
2023/10/11 06:32:31;;;;;;;13.00;7.10;;;;;;;12.41;nan;101084.56;10359506;28;20060;-82
2023/10/11 06:37:35;;;;;;;11.65;7.38;;;;;;;12.72;nan;101070.13;10343735;28;20092;-82
2023/10/11 06:42:35;;;;;;;17.33;7.22;;;;;;;13.04;nan;101062.69;10358459;28;20042;-82
2023/10/11 06:47:36;;;;;;;18.17;6.18;;;;;;;13.39;nan;101064.91;10357896;28;20180;-83
2023/10/11 06:52:43;;;;;;;10.50;6.28;;;;;;;13.49;nan;101071.47;10374928;28;20540;-83
2023/10/11 06:57:50;;;;;;;10.27;5.85;;;;;;;13.58;nan;101073.56;10358594;28;20392;-82
2023/10/11 07:03:26;;;;;;;16.95;6.45;;;;;;;13.92;nan;101051.16;10341043;28;20087;-83
2023/10/11 07:08:34;;;;;;;12.23;5.38;;;;;;;14.46;nan;101061.00;10357841;28;20041;-83
2023/10/11 07:19:11;;;;;;;9.60;4.30;;;;;;;15.19;nan;101071.31;10331474;28;20041;-81
2023/10/11 07:29:35;;;;;;;11.00;6.03;;;;;;;15.61;nan;101069.97;10356329;28;20064;-82
2023/10/11 07:34:36;;;;;;;7.55;4.22;;;;;;;15.91;nan;101081.41;10358273;28;20506;-82
2023/10/11 07:39:37;;;;;;;10.43;6.67;;;;;;;16.17;nan;101076.91;10356032;28;20128;-82
2023/10/11 07:44:38;;;;;;;10.32;5.22;;;;;;;16.36;nan;101086.22;10356324;28;20513;-83
2023/10/11 07:49:39;;;;;;;9.47;4.97;;;;;;;16.44;nan;101083.78;10371556;28;20053;-83
2023/10/11 07:54:40;;;;;;;9.32;4.65;;;;;;;16.56;nan;101099.97;10370304;28;20076;-81
2023/10/11 07:59:41;;;;;;;10.98;4.78;;;;;;;16.69;nan;101118.81;10299290;28;20042;-81
2023/10/11 08:04:47;;;;;;;10.33;5.40;;;;;;;16.73;nan;101116.25;10356725;28;20504;-80
2023/10/11 08:09:52;;;;;;;9.43;5.88;;;;;;;16.98;nan;101113.41;10370112;28;20042;-81
2023/10/11 08:14:58;;;;;;;14.73;5.80;;;;;;;17.32;nan;101130.09;10356833;28;20068;-82
2023/10/11 08:20:00;;;;;;;13.23;5.15;;;;;;;17.54;nan;101135.91;10371612;28;20109;-81
2023/10/11 08:25:01;;;;;;;12.05;5.38;;;;;;;17.70;nan;101132.75;10374182;28;20498;-82
2023/10/11 08:30:09;;;;;;;14.00;6.93;;;;;;;17.84;nan;101140.97;10340284;28;20121;-81
2023/10/11 08:35:16;;;;;;;11.25;6.85;;;;;;;18.10;nan;101153.03;10356642;28;20030;-81
2023/10/11 08:40:20;;;;;;;13.43;5.28;;;;;;;18.23;nan;101152.44;10339270;28;20112;-80
2023/10/11 08:45:35;;;;;;;19.13;6.75;;;;;;;18.23;nan;101144.50;10363383;28;20795;-81
2023/10/11 08:50:36;;;;;;;14.40;6.45;;;;;;;18.53;nan;101151.28;10350355;28;20042;-80
2023/10/11 08:55:39;;;;;;;11.75;7.70;;;;;;;18.93;nan;101149.34;10376850;28;20584;-81
2023/10/11 09:00:47;;;;;;;14.40;7.63;;;;;;;18.97;nan;101154.75;10362857;28;20030;-81
2023/10/11 09:05:47;;;;;;;16.85;7.40;;;;;;;19.18;nan;101143.59;10363855;28;20045;-81
2023/10/11 09:10:49;;;;;;;10.38;6.00;;;;;;;19.36;nan;101156.28;10364997;28;20562;-80
2023/10/11 09:15:54;;;;;;;21.67;6.53;;;;;;;19.42;nan;101151.06;10347005;28;20034;-80
2023/10/11 09:21:10;;;;;;;12.90;6.30;;;;;;;19.79;nan;101146.31;10363095;28;20046;-80
2023/10/11 09:26:21;;;;;;;15.77;6.68;;;;;;;19.84;nan;101167.59;10349634;28;20038;-81
2023/10/11 09:31:22;;;;;;;14.65;7.30;;;;;;;19.88;nan;101155.28;10361050;28;20038;-79
2023/10/11 09:36:28;;;;;;;21.13;7.75;;;;;;;20.27;nan;101155.78;10359718;28;20485;-80
2023/10/11 09:41:38;;;;;;;12.25;6.45;;;;;;;20.85;nan;101167.97;10344628;28;20081;-78
2023/10/11 09:46:43;;;;;;;19.50;7.00;;;;;;;21.03;nan;101181.47;10361234;28;20049;-79
2023/10/11 09:51:44;;;;;;;20.17;7.75;;;;;;;21.00;nan;101183.22;10360921;28;20062;-78
2023/10/11 09:56:51;;;;;;;21.30;8.00;;;;;;;21.35;nan;101194.16;10366718;28;20137;-80
2023/10/11 10:02:19;;;;;;;21.92;9.20;;;;;;;21.90;nan;101218.56;10363220;28;20038;-79
2023/10/11 10:07:42;;;;;;;20.30;7.90;;;;;;;22.28;nan;101212.56;10359582;28;20041;-81
2023/10/11 10:12:42;;;;;;;13.00;7.53;;;;;;;23.53;nan;101222.66;10361143;28;20508;-80
2023/10/11 10:18:00;;;;;;;15.60;7.25;;;;;;;24.61;nan;101242.00;10343428;28;20041;-83
2023/10/11 10:23:16;;;;;;;12.93;6.80;;;;;;;24.26;nan;101237.69;10360085;28;20077;-80
2023/10/11 10:28:32;;;;;;;12.38;5.78;;;;;;;24.72;nan;101266.03;10359954;28;20073;-79
2023/10/11 10:33:35;;;;;;;12.13;7.38;;;;;;;24.79;nan;101259.78;10358415;28;20161;-81
2023/10/11 10:38:58;;;;;;;13.05;6.68;;;;;;;25.33;nan;101270.16;10337276;28;20121;-80
2023/10/11 10:44:16;;;;;;;12.65;6.35;;;;;;;25.77;nan;101259.97;10359150;28;20417;-78
2023/10/11 10:49:29;;;;;;;17.67;7.53;;;;;;;26.04;nan;101249.88;10340562;28;20046;-77
2023/10/11 10:54:32;;;;;;;13.25;6.68;;;;;;;26.98;nan;101236.25;10326742;28;20446;-79
2023/10/11 10:59:32;;;;;;;18.92;7.30;;;;;;;26.09;nan;101252.53;10318310;28;20144;-77
2023/10/11 11:04:34;;;;;;;14.90;7.00;;;;;;;25.57;nan;101257.50;10315154;28;20035;-78
2023/10/11 11:09:34;;;;;;;17.53;7.23;;;;;;;25.94;nan;101241.06;10347674;28;20494;-77
2023/10/11 11:14:35;;;;;;;19.37;8.87;;;;;;;24.05;nan;101229.72;10359751;28;20177;-78
2023/10/11 11:19:35;;;;;;;10.87;6.23;;;;;;;25.06;nan;101226.59;10337749;28;20137;-79
2023/10/11 11:24:38;;;;;;;16.60;8.32;;;;;;;25.98;nan;101241.03;10357683;28;20038;-79
2023/10/11 11:29:38;;;;;;;13.15;7.18;;;;;;;25.28;nan;101230.91;10365388;28;20072;-81
2023/10/11 11:34:39;;;;;;;17.77;8.23;;;;;;;25.26;nan;101230.94;10356800;28;20190;-81
2023/10/11 11:39:49;;;;;;;16.87;9.67;;;;;;;26.08;nan;101221.25;10357078;28;20129;-78
2023/10/11 11:44:51;;;;;;;14.93;6.70;;;;;;;26.66;nan;101211.59;10321750;28;20042;-77
2023/10/11 11:49:51;;;;;;;13.82;5.97;;;;;;;27.34;nan;101214.19;10350986;28;20120;-79
2023/10/11 11:54:54;;;;;;;14.77;8.13;;;;;;;26.62;nan;101191.06;10333214;28;20398;-79
2023/10/11 11:59:55;;;;;;;18.35;9.23;;;;;;;25.98;nan;101184.72;10356804;28;20378;-79
2023/10/11 12:04:56;;;;;;;11.83;7.13;;;;;;;26.94;nan;101184.38;10364893;28;20117;-81
2023/10/11 12:09:56;;;;;;;22.65;8.18;;;;;;;27.03;nan;101177.97;10356724;28;20121;-81
2023/10/11 12:14:59;;;;;;;13.97;7.00;;;;;;;27.03;nan;101158.28;10352385;28;20112;-81
2023/10/11 12:20:00;;;;;;;15.07;6.70;;;;;;;26.81;nan;101167.53;10359915;28;20042;-82
2023/10/11 12:25:07;;;;;;;16.48;7.53;;;;;;;26.85;nan;101159.47;10376586;28;20121;-80
2023/10/11 12:30:20;;;;;;;19.95;8.13;;;;;;;26.74;nan;101151.53;10381660;28;20136;-80
2023/10/11 12:35:23;;;;;;;15.98;7.38;;;;;;;26.01;nan;101142.66;10376516;28;20133;-79
2023/10/11 12:40:23;;;;;;;14.48;7.22;;;;;;;26.18;nan;101115.66;10375194;28;20533;-79
2023/10/11 12:45:24;;;;;;;16.13;6.17;;;;;;;26.96;nan;101141.38;10342963;28;20049;-79
2023/10/11 12:50:25;;;;;;;15.60;7.37;;;;;;;26.08;nan;101138.13;10325812;28;20034;-79
2023/10/11 12:55:25;;;;;;;20.00;6.47;;;;;;;25.45;nan;101137.91;10335887;28;20062;-80
2023/10/11 13:00:29;;;;;;;12.80;6.33;;;;;;;25.88;nan;101136.56;10360407;28;20546;-81
2023/10/11 13:05:30;;;;;;;17.52;6.53;;;;;;;26.40;nan;101126.09;10361738;28;20129;-81
2023/10/11 13:10:33;;;;;;;15.45;5.85;;;;;;;27.19;nan;101118.63;10375029;28;20050;-80
2023/10/11 13:15:33;;;;;;;12.30;5.40;;;;;;;27.18;nan;101116.84;10362182;28;20045;-79
2023/10/11 13:20:35;;;;;;;23.83;7.60;;;;;;;26.76;nan;101118.41;10360394;28;20489;-79
2023/10/11 13:25:36;;;;;;;16.95;7.78;;;;;;;27.37;nan;101117.38;10350923;28;20053;-79
2023/10/11 13:30:36;;;;;;;19.73;5.80;;;;;;;26.66;nan;101098.00;10336934;28;20574;-78
2023/10/11 13:35:37;;;;;;;21.00;7.03;;;;;;;25.42;nan;101091.50;10337597;28;20030;-78
2023/10/11 13:40:39;;;;;;;17.50;6.93;;;;;;;24.11;nan;101091.56;10317431;28;20046;-78
2023/10/11 13:45:45;;;;;;;13.35;6.05;;;;;;;23.44;nan;101073.09;10377231;28;20046;-79
2023/10/11 13:50:49;;;;;;;13.70;6.18;;;;;;;23.77;nan;101041.81;10359708;28;20560;-78
2023/10/11 13:55:51;;;;;;;16.58;6.22;;;;;;;24.96;nan;101063.38;10375358;28;20104;-79
2023/10/11 14:06:20;;;;;;;13.60;5.47;;;;;;;24.29;nan;101048.69;10347995;28;20128;-78
2023/10/11 14:11:19;;;;;;;14.40;5.72;;;;;;;23.17;nan;101037.53;10362654;28;20509;-78
2023/10/11 14:16:27;;;;;;;25.92;7.57;;;;;;;22.99;nan;101033.09;10359558;28;20471;-79
2023/10/11 14:21:30;;;;;;;15.13;5.63;;;;;;;23.59;nan;101019.63;10360997;28;20125;-79
2023/10/11 14:26:33;;;;;;;14.38;5.32;;;;;;;24.90;nan;101032.22;10360105;28;20057;-78
2023/10/11 14:31:34;;;;;;;14.05;6.40;;;;;;;24.66;nan;101018.13;10357042;28;20042;-78
2023/10/11 14:36:34;;;;;;;21.13;6.60;;;;;;;25.15;nan;101024.81;10339142;28;20042;-78
2023/10/11 14:41:37;;;;;;;15.17;5.60;;;;;;;24.24;nan;101014.88;10374206;28;20831;-78
2023/10/11 14:46:39;;;;;;;17.20;5.95;;;;;;;24.35;nan;101015.69;10350480;28;20046;-78
2023/10/11 14:51:41;;;;;;;16.20;7.43;;;;;;;24.50;nan;101006.63;10336581;28;20171;-78
2023/10/11 14:56:41;;;;;;;;;;;;;;;23.98;nan;100998.03;10392447;28;20383;-78
2023/10/11 15:01:42;;;;;;;13.87;6.03;;;;;;;23.84;nan;100995.47;10360850;28;19925;-80
2023/10/11 15:06:45;;;;;;;13.80;5.67;;;;;;;23.51;nan;100972.47;10357473;28;20363;-79
2023/10/11 15:11:48;;;;;;;19.40;6.68;;;;;;;22.75;nan;100951.31;10358525;28;20077;-79
2023/10/11 15:16:49;;;;;;;19.60;6.10;;;;;;;22.16;nan;100946.84;10341653;28;20050;-79
2023/10/11 15:21:49;;;;;;;9.77;5.03;;;;;;;21.66;nan;100940.53;10357165;28;20116;-80
2023/10/11 15:26:51;;;;;;;10.67;5.50;;;;;;;21.36;nan;100934.19;10388541;28;20382;-80
2023/10/11 15:31:52;;;;;;;17.23;5.78;;;;;;;21.00;nan;100910.06;10355424;28;20046;-80
2023/10/11 15:36:52;;;;;;;18.57;6.43;;;;;;;20.67;nan;100911.59;10388973;28;20506;-79
2023/10/11 15:41:56;;;;;;;13.87;5.53;;;;;;;20.31;nan;100894.50;10354689;28;20116;-79
2023/10/11 15:46:57;;;;;;;16.38;6.07;;;;;;;19.95;nan;100889.78;10356468;28;20042;-79
2023/10/11 15:52:00;;;;;;;10.53;5.03;;;;;;;19.66;nan;100874.44;10352966;28;20053;-78
2023/10/11 15:57:01;;;;;;;11.15;5.22;;;;;;;19.68;nan;100879.78;10325884;28;20296;-79
2023/10/11 16:02:05;;;;;;;19.55;7.45;;;;;;;19.49;nan;100868.06;10355298;28;20758;-79
2023/10/11 16:07:06;;;;;;;12.98;6.30;;;;;;;19.25;nan;100856.28;10357850;28;20038;-79
2023/10/11 16:12:12;;;;;;;10.57;5.22;;;;;;;19.02;nan;100859.53;10371769;28;20042;-78
2023/10/11 16:17:12;;;;;;;11.95;5.55;;;;;;;18.83;nan;100850.44;10353652;28;20041;-79
2023/10/11 16:22:12;;;;;;;11.45;4.90;;;;;;;18.83;nan;100860.16;10357458;28;20129;-80
2023/10/11 16:27:14;;;;;;;17.03;6.67;;;;;;;18.56;nan;100849.19;10355303;28;20121;-79
2023/10/11 16:32:15;;;;;;;12.20;4.68;;;;;;;18.30;nan;100847.03;10371267;28;20034;-80
2023/10/11 16:37:15;;;;;;;15.00;5.10;;;;;;;18.29;nan;100844.34;10353671;28;20099;-80
2023/10/11 16:42:16;;;;;;;9.60;4.35;;;;;;;18.29;nan;100850.56;10356383;28;20065;-80
2023/10/11 16:47:19;;;;;;;9.40;4.68;;;;;;;18.12;nan;100847.63;10353396;28;20128;-80
2023/10/11 16:52:20;;;;;;;10.93;4.85;;;;;;;17.88;nan;100854.25;10356967;28;20070;-80
2023/10/11 16:57:21;;;;;;;11.67;5.10;;;;;;;17.75;nan;100857.56;10371785;28;20046;-80
2023/10/11 17:02:25;;;;;;;10.70;5.10;;;;;;;17.62;nan;100859.09;10357322;28;20042;-80
2023/10/11 17:07:25;;;;;;;13.48;4.80;;;;;;;17.51;nan;100861.53;10361922;28;20038;-79
2023/10/11 17:12:26;;;;;;;11.57;4.30;;;;;;;17.68;nan;100866.25;10360691;28;20544;-80
2023/10/11 17:17:26;;;;;;;10.48;4.03;;;;;;;17.73;nan;100869.88;10380293;28;20070;-79
2023/10/11 17:22:27;;;;;;;9.27;3.63;;;;;;;17.71;nan;100875.16;10377117;28;20445;-78
2023/10/11 17:27:29;;;;;;;10.15;5.30;;;;;;;17.79;nan;100875.28;10364515;28;20126;-80
2023/10/11 17:32:29;;;;;;;10.70;4.28;;;;;;;17.87;nan;100875.44;10342589;28;20046;-80
2023/10/11 17:37:30;;;;;;;13.20;3.45;;;;;;;17.73;nan;100875.16;10322669;28;20254;-79
2023/10/11 17:42:30;;;;;;;7.30;3.72;;;;;;;17.59;nan;100875.81;10336057;28;20138;-80
2023/10/11 17:47:31;;;;;;;10.57;4.05;;;;;;;17.68;nan;100876.84;10306102;28;20057;-79
2023/10/11 17:52:35;;;;;;;16.15;4.07;;;;;;;17.48;nan;100872.06;10349895;28;20049;-79
2023/10/11 17:57:40;;;;;;;9.30;3.95;;;;;;;17.08;nan;100871.25;10361602;28;20049;-79
2023/10/11 18:02:41;;;;;;;14.65;5.72;;;;;;;16.86;nan;100876.97;10360047;28;20068;-79
2023/10/11 18:07:43;;;;;;;15.52;6.85;;;;;;;16.84;nan;100888.34;10362187;28;20069;-80
2023/10/11 18:12:47;;;;;;;15.18;5.20;;;;;;;16.82;nan;100882.13;10376655;28;20038;-79
2023/10/11 18:17:50;;;;;;;14.07;5.78;;;;;;;16.55;nan;100894.75;10357913;28;20049;-79
2023/10/11 18:22:50;;;;;;;14.52;4.28;;;;;;;16.47;nan;100895.41;10377716;28;20037;-79
2023/10/11 18:27:56;;;;;;;16.92;5.78;;;;;;;16.33;nan;100895.09;10376921;28;20034;-79
2023/10/11 18:32:56;;;;;;;11.90;4.57;;;;;;;16.14;nan;100895.50;10361309;28;20037;-79
2023/10/11 18:37:57;;;;;;;16.98;5.10;;;;;;;15.98;nan;100896.88;10377008;28;20405;-79
2023/10/11 18:43:00;;;;;;;16.02;6.18;;;;;;;15.75;nan;100890.94;10358177;28;20065;-79
2023/10/11 18:48:00;;;;;;;14.77;5.38;;;;;;;15.64;nan;100889.78;10359548;28;20034;-80
2023/10/11 18:53:01;;;;;;;14.20;6.88;;;;;;;15.61;nan;100881.78;10357218;28;20061;-80
2023/10/11 18:58:02;;;;;;;18.08;5.75;;;;;;;15.55;nan;100864.94;10375125;28;20045;-81
2023/10/11 19:03:02;;;;;;;12.25;4.38;;;;;;;15.41;nan;100861.94;10361226;28;20041;-81
2023/10/11 19:08:07;;;;;;;13.27;4.90;;;;;;;15.22;nan;100863.13;10360749;28;20030;-80
2023/10/11 19:13:08;;;;;;;21.27;6.30;;;;;;;15.26;nan;100858.88;10374346;28;20097;-81
2023/10/11 19:18:10;;;;;;;10.80;5.43;;;;;;;15.24;nan;100865.84;10374855;28;20050;-80
2023/10/11 19:23:11;;;;;;;11.10;6.03;;;;;;;15.25;nan;100859.72;10358854;28;20474;-81
2023/10/11 19:28:12;;;;;;;10.77;4.63;;;;;;;15.15;nan;100866.44;10389822;28;20053;-81
2023/10/11 19:33:12;;;;;;;13.63;5.32;;;;;;;14.93;nan;100855.28;10358604;28;20360;-83
2023/10/11 19:38:13;;;;;;;13.63;5.20;;;;;;;14.91;nan;100867.50;10360460;28;20498;-81
2023/10/11 19:43:13;;;;;;;19.17;6.70;;;;;;;15.06;nan;100860.91;10355722;28;20038;-83
2023/10/11 19:48:14;;;;;;;13.95;7.95;;;;;;;15.10;nan;100846.97;10354299;28;20046;-79
2023/10/11 19:53:19;;;;;;;13.10;6.70;;;;;;;15.14;nan;100855.88;10357696;28;20121;-81
2023/10/11 19:58:20;;;;;;;15.52;5.32;;;;;;;15.29;nan;100860.69;10350647;28;20053;-88
2023/10/11 20:03:21;;;;;;;13.23;5.97;;;;;;;15.51;nan;100859.53;10336271;28;20052;-81
2023/10/11 20:08:22;;;;;;;15.70;6.47;;;;;;;15.59;nan;100841.28;10358011;28;20509;-83
2023/10/11 20:13:23;;;;;;;11.98;5.57;;;;;;;15.48;nan;100835.72;10357938;28;20089;-82
2023/10/11 20:18:25;;;;;;;9.20;5.47;;;;;;;15.17;nan;100835.75;10355966;28;20413;-83
2023/10/11 20:23:27;;;;;;;23.55;8.40;;;;;;;14.95;nan;100848.31;10314265;28;20038;-79
2023/10/11 20:28:27;;;;;;;20.52;7.20;;;;;;;14.86;nan;100855.94;10362603;28;20038;-84
2023/10/11 20:33:28;;;;;;;20.35;7.10;;;;;;;14.76;nan;100853.88;10335049;28;20045;-83
2023/10/11 20:38:28;;;;;;;17.50;7.20;;;;;;;14.74;nan;100863.47;10328909;28;20535;-84
2023/10/11 20:43:30;;;;;;;11.05;6.30;;;;;;;14.77;nan;100861.84;10363706;28;20050;-80
2023/10/11 20:48:32;;;;;;;14.55;6.28;;;;;;;14.76;nan;100864.41;10348551;28;20080;-82
2023/10/11 20:53:34;;;;;;;16.95;8.50;;;;;;;14.76;nan;100853.88;10364401;28;20038;-83
2023/10/11 20:58:38;;;;;;;21.23;6.38;;;;;;;14.72;nan;100855.53;10359238;28;20068;-83
2023/10/11 21:03:40;;;;;;;14.32;6.88;;;;;;;14.71;nan;100863.38;10364100;28;20125;-84
2023/10/11 21:08:40;;;;;;;10.52;5.90;;;;;;;14.72;nan;100852.00;10364532;28;20029;-83
2023/10/11 21:13:42;;;;;;;24.83;8.20;;;;;;;14.77;nan;100859.22;10362273;28;20037;-84
2023/10/11 21:18:43;;;;;;;17.40;9.23;;;;;;;14.84;nan;100870.81;10337258;28;20035;-84
2023/10/11 21:23:44;;;;;;;18.33;6.50;;;;;;;14.82;nan;100856.69;10326606;28;20067;-83
2023/10/11 21:28:49;;;;;;;19.92;7.63;;;;;;;14.90;nan;100871.00;10362068;28;20038;-83
2023/10/11 21:33:50;;;;;;;15.52;8.23;;;;;;;14.95;nan;100865.88;10360974;28;20124;-84
2023/10/11 21:38:51;;;;;;;15.93;7.15;;;;;;;14.96;nan;100860.63;10362180;28;20446;-83
2023/10/11 21:43:53;;;;;;;15.00;7.35;;;;;;;15.02;nan;100849.41;10362784;28;20434;-83
2023/10/11 21:48:53;;;;;;;14.27;7.05;;;;;;;15.14;nan;100840.94;10362614;28;20034;-83
2023/10/11 21:53:54;;;;;;;31.30;9.43;;;;;;;15.25;nan;100841.25;10376331;28;20030;-83
2023/10/11 21:58:55;;;;;;;11.60;6.43;;;;;;;15.36;nan;100841.53;10348576;28;20034;-84
2023/10/11 22:03:56;;;;;;;12.52;5.95;;;;;;;15.53;nan;100840.25;10323510;28;20467;-83
2023/10/11 22:08:57;;;;;;;16.02;7.50;;;;;;;15.76;nan;100826.78;10359443;28;20557;-84
2023/10/11 22:13:57;;;;;;;13.77;6.78;;;;;;;15.98;nan;100820.34;10359687;28;20115;-84
2023/10/11 22:18:58;;;;;;;16.75;7.15;;;;;;;16.13;nan;100811.88;10358690;28;20113;-84
2023/10/11 22:23:59;;;;;;;18.98;7.32;;;;;;;16.24;nan;100820.06;10360144;28;20129;-85
2023/10/11 22:29:00;;;;;;;11.48;6.85;;;;;;;16.34;nan;100791.25;10359630;28;20490;-83
2023/10/11 22:34:00;;;;;;;17.52;6.32;;;;;;;16.54;nan;100778.47;10330957;28;20430;-84
2023/10/11 22:39:01;;;;;;;13.90;6.43;;;;;;;16.53;nan;100795.16;10340195;28;20038;-84
2023/10/11 22:44:01;;;;;;;13.10;5.45;;;;;;;16.62;nan;100795.38;10361062;28;20128;-84
2023/10/11 22:49:03;;;;;;;9.93;5.68;;;;;;;16.86;nan;100802.03;10360331;28;20046;-83
2023/10/11 22:54:04;;;;;;;;;;;;;;;16.98;nan;100812.91;10358098;28;20041;-83
2023/10/11 22:59:04;;;;;;;11.60;5.07;;;;;;;17.09;nan;100815.78;10351086;28;19928;-85
2023/10/11 23:04:05;;;;;;;12.23;5.05;;;;;;;17.16;nan;100827.34;10316041;28;20569;-85
2023/10/11 23:09:06;;;;;;;15.45;4.88;;;;;;;17.06;nan;100831.56;10321376;28;20129;-84
2023/10/11 23:14:06;;;;;;;16.45;5.95;;;;;;;17.06;nan;100849.19;10326034;28;20042;-85
2023/10/11 23:19:19;;;;;;;18.98;5.93;;;;;;;17.19;nan;100859.16;10358483;28;20401;-85
2023/10/11 23:24:32;;;;;;;14.05;6.32;;;;;;;17.16;nan;100867.00;10357945;28;20049;-84
2023/10/11 23:29:39;;;;;;;9.50;5.45;;;;;;;17.14;nan;100844.94;10358933;28;20053;-85
2023/10/11 23:34:40;;;;;;;12.05;5.30;;;;;;;17.15;nan;100847.63;10357578;28;20584;-85
2023/10/11 23:40:09;;;;;;;10.50;5.63;;;;;;;17.07;nan;100828.06;10378733;28;20065;-84
2023/10/11 23:45:01;;;;;;;9.73;4.53;;;;;;;17.00;nan;100828.81;10358847;28;20049;-85
2023/10/11 23:50:08;;;;;;;11.50;4.82;;;;;;;16.84;nan;100816.97;10327127;28;20383;-85
2023/10/11 23:55:22;;;;;;;19.92;6.38;;;;;;;16.76;nan;100837.06;10317344;28;20050;-85
